Time;durP1;ratioP1;P1;durP2;ratioP2;P2;SDS_P1;SDS_P2;PMS_P1;PMS_P2;Temp;Humidity;BMP_temperature;BMP_pressure;BME280_temperature;BME280_humidity;BME280_pressure;Samples;Min_cycle;Max_cycle;Signal;HPM_P1;HPM_P2
2021/12/25 00:01:55;;;;;;;3.43;1.10;;;-0.20;99.90;;;;;;4997261;28;20485;-52
2021/12/25 00:04:21;;;;;;;5.87;2.00;;;-0.30;99.90;;;;;;4964272;28;20539;-53
2021/12/25 00:06:47;;;;;;;5.47;1.58;;;-0.30;99.90;;;;;;5003885;28;20092;-54
2021/12/25 00:09:13;;;;;;;5.15;1.85;;;-0.30;99.90;;;;;;5000297;28;20081;-56
2021/12/25 00:11:38;;;;;;;4.03;1.10;;;-0.30;99.90;;;;;;4998433;28;20050;-56
2021/12/25 00:14:10;;;;;;;2.97;1.20;;;-0.30;99.90;;;;;;4998625;28;20460;-55
2021/12/25 00:16:37;;;;;;;5.03;1.30;;;-0.30;99.90;;;;;;5005086;28;20386;-54
2021/12/25 00:19:03;;;;;;;2.63;1.10;;;-0.30;99.90;;;;;;5001646;28;20042;-54
2021/12/25 00:21:29;;;;;;;5.83;1.17;;;-0.40;99.90;;;;;;4982243;28;20065;-56
2021/12/25 00:23:55;;;;;;;7.40;1.40;;;-0.40;99.90;;;;;;4979015;28;20184;-56
2021/12/25 00:27:09;;;;;;;5.03;1.57;;;-0.40;99.90;;;;;;4999012;28;20029;-54
2021/12/25 00:34:41;;;;;;;8.68;1.00;;;-0.50;99.90;;;;;;5001198;28;20038;-54
2021/12/25 00:37:08;;;;;;;5.83;1.00;;;-0.50;99.90;;;;;;4995030;28;20042;-57
2021/12/25 00:39:33;;;;;;;1.67;0.93;;;-0.50;99.90;;;;;;4996874;28;20064;-55
2021/12/25 00:42:01;;;;;;;6.32;1.10;;;-0.50;99.90;;;;;;4998401;28;20076;-51
2021/12/25 00:44:28;;;;;;;4.90;1.43;;;-0.50;99.90;;;;;;4979271;28;20136;-56
2021/12/25 00:46:54;;;;;;;5.00;1.00;;;-0.50;99.90;;;;;;4999793;28;20046;-51
2021/12/25 00:49:19;;;;;;;5.27;1.50;;;-0.50;99.90;;;;;;4995177;28;20057;-51
2021/12/25 00:51:45;;;;;;;6.90;2.03;;;-0.60;99.90;;;;;;5000779;28;20042;-55
2021/12/25 00:54:11;;;;;;;10.97;2.33;;;-0.60;99.90;;;;;;5002013;28;20140;-54
2021/12/25 00:56:37;;;;;;;8.93;2.07;;;-0.60;99.90;;;;;;4994249;28;20069;-58
2021/12/25 00:59:03;;;;;;;4.67;1.47;;;-0.70;99.90;;;;;;5002348;28;20405;-54
2021/12/25 01:01:29;;;;;;;6.80;1.47;;;-0.60;99.90;;;;;;4986335;28;20576;-51
2021/12/25 01:03:55;;;;;;;5.20;1.57;;;-0.40;99.90;;;;;;5004690;28;20045;-51
2021/12/25 01:06:20;;;;;;;6.87;2.10;;;-0.70;99.90;;;;;;4999975;28;20438;-55
2021/12/25 01:08:47;;;;;;;6.43;1.43;;;-0.70;99.90;;;;;;4982270;28;20121;-56
2021/12/25 01:11:13;;;;;;;3.53;1.13;;;-0.70;99.90;;;;;;5003098;28;20038;-53
2021/12/25 01:13:46;;;;;;;5.20;1.10;;;-0.70;99.90;;;;;;4995746;28;20053;-52
2021/12/25 01:16:26;;;;;;;4.67;1.20;;;-0.80;99.90;;;;;;5001802;28;20054;-53
2021/12/25 01:35:44;;;;;;;8.20;1.30;;;-1.00;99.90;;;;;;4973091;28;20092;-54
2021/12/25 01:38:20;;;;;;;7.77;1.03;;;-1.00;99.90;;;;;;4998352;28;20054;-53
2021/12/25 01:41:05;;;;;;;4.38;1.10;;;-1.10;99.90;;;;;;4989529;28;20129;-51
2021/12/25 01:48:59;;;;;;;;;;;-1.20;99.90;;;;;;5001599;28;20477;-52
2021/12/25 01:51:24;;;;;;;4.17;1.53;;;-1.20;99.90;;;;;;5013106;28;19922;-57
2021/12/25 01:53:50;;;;;;;2.67;1.07;;;-1.20;99.90;;;;;;4996089;28;20045;-53
2021/12/25 01:56:16;;;;;;;3.73;0.83;;;-1.30;99.90;;;;;;5000198;28;20041;-54
2021/12/25 01:58:42;;;;;;;4.50;1.00;;;-1.30;99.90;;;;;;4982066;28;20050;-54
2021/12/25 02:01:10;;;;;;;4.90;1.20;;;-1.40;99.90;;;;;;4996252;28;20264;-54
2021/12/25 02:03:37;;;;;;;2.87;0.83;;;-1.40;99.90;;;;;;4998446;28;20604;-55
2021/12/25 02:06:05;;;;;;;3.37;0.60;;;-1.50;99.90;;;;;;4998498;28;20226;-55
2021/12/25 02:08:33;;;;;;;3.53;0.77;;;-1.50;99.90;;;;;;5012482;28;20132;-53
2021/12/25 02:10:59;;;;;;;4.90;0.87;;;-1.50;99.90;;;;;;4993443;28;20033;-56
2021/12/25 02:13:25;;;;;;;3.63;0.83;;;-1.50;99.90;;;;;;4991750;28;20045;-55
2021/12/25 02:15:54;;;;;;;4.30;0.70;;;-1.60;99.90;;;;;;4999488;28;20297;-53
2021/12/25 02:20:56;;;;;;;3.27;0.93;;;-1.60;99.90;;;;;;4994532;28;20096;-52
2021/12/25 02:23:24;;;;;;;3.10;1.00;;;-1.60;99.90;;;;;;4997337;28;20489;-51
2021/12/25 02:25:51;;;;;;;2.57;0.70;;;-1.60;99.90;;;;;;5014619;28;20312;-51
2021/12/25 02:28:18;;;;;;;3.03;0.70;;;-1.70;99.90;;;;;;4995160;28;20050;-55
2021/12/25 02:30:47;;;;;;;2.67;0.77;;;-1.70;99.90;;;;;;4993832;28;20509;-53
2021/12/25 02:33:13;;;;;;;4.60;0.93;;;-1.70;99.90;;;;;;4992318;28;20052;-51
2021/12/25 02:35:39;;;;;;;6.53;0.80;;;-1.70;99.90;;;;;;4995227;28;20078;-54
2021/12/25 02:38:06;;;;;;;2.37;0.60;;;-1.80;99.90;;;;;;4995157;28;20044;-52
2021/12/25 02:40:32;;;;;;;3.23;0.70;;;-1.80;99.90;;;;;;5002415;28;20049;-54
2021/12/25 02:42:58;;;;;;;7.37;0.80;;;-1.80;99.90;;;;;;4998054;28;20456;-51
2021/12/25 02:45:25;;;;;;;3.93;0.87;;;-1.80;99.90;;;;;;5001933;28;20060;-53
2021/12/25 02:47:53;;;;;;;5.17;0.87;;;-1.80;99.90;;;;;;4996440;28;20056;-54
2021/12/25 02:50:39;;;;;;;2.87;0.90;;;-1.90;99.90;;;;;;5001862;28;20034;-52
2021/12/25 02:53:07;;;;;;;1.77;0.60;;;-1.90;99.90;;;;;;4997196;28;20037;-56
2021/12/25 02:55:35;;;;;;;1.97;0.87;;;-2.00;99.90;;;;;;4999413;28;20050;-55
2021/12/25 02:58:01;;;;;;;4.27;0.87;;;-2.00;99.90;;;;;;4997767;28;20496;-51
2021/12/25 03:00:33;;;;;;;4.00;0.70;;;-2.00;99.90;;;;;;4984177;28;20038;-54
2021/12/25 03:03:00;;;;;;;1.53;0.40;;;-2.00;99.90;;;;;;4998075;28;20045;-52
2021/12/25 03:05:26;;;;;;;2.40;0.60;;;-2.00;99.90;;;;;;4995799;28;20038;-54
2021/12/25 03:07:52;;;;;;;2.13;0.70;;;-2.10;99.90;;;;;;4998467;28;20054;-54
2021/12/25 03:10:19;;;;;;;2.13;0.80;;;-2.10;99.90;;;;;;5000863;28;20423;-52
2021/12/25 03:15:20;;;;;;;3.13;0.83;;;-2.10;99.90;;;;;;5004435;28;20118;-51
2021/12/25 03:17:46;;;;;;;1.67;0.50;;;-2.20;99.90;;;;;;5001290;28;20257;-56
2021/12/25 03:20:12;;;;;;;2.40;0.67;;;-2.10;99.90;;;;;;4995827;28;20048;-54
2021/12/25 03:22:39;;;;;;;2.67;0.70;;;-2.20;99.90;;;;;;5000540;28;20435;-55
2021/12/25 03:25:11;;;;;;;2.67;0.67;;;-2.20;99.90;;;;;;5002041;28;20049;-54
2021/12/25 03:27:39;;;;;;;0.73;0.50;;;-2.20;99.90;;;;;;5002641;28;20096;-54
2021/12/25 03:30:07;;;;;;;4.40;0.80;;;-2.20;99.90;;;;;;4997141;28;20046;-54
2021/12/25 03:32:33;;;;;;;1.90;0.50;;;-2.20;99.90;;;;;;5004245;28;20042;-57
2021/12/25 03:34:59;;;;;;;4.17;0.70;;;-2.30;99.90;;;;;;4999384;28;20413;-54
2021/12/25 03:37:25;;;;;;;1.10;0.40;;;-2.30;99.90;;;;;;5008059;28;20126;-51
2021/12/25 03:39:51;;;;;;;1.83;0.43;;;-2.30;99.50;;;;;;4997172;28;20034;-53
2021/12/25 03:42:16;;;;;;;2.30;0.37;;;-2.30;99.80;;;;;;5004696;28;20042;-51
2021/12/25 03:44:42;;;;;;;2.47;0.97;;;-2.30;99.40;;;;;;4999026;28;20091;-57
2021/12/25 03:47:22;;;;;;;1.63;0.50;;;-2.30;99.70;;;;;;5005077;28;20125;-55
2021/12/25 03:58:06;;;;;;;1.53;0.30;;;-2.40;98.30;;;;;;5000959;28;20054;-56
2021/12/25 04:00:33;;;;;;;3.03;0.70;;;-2.40;97.20;;;;;;5003605;28;20503;-51
2021/12/25 04:03:04;;;;;;;2.27;0.70;;;-2.50;97.90;;;;;;4981124;28;20403;-55
2021/12/25 04:05:33;;;;;;;3.10;0.70;;;-2.50;97.50;;;;;;5001381;28;20046;-52
2021/12/25 04:10:35;;;;;;;3.70;0.40;;;-2.50;97.40;;;;;;4982999;28;20058;-56
2021/12/25 04:13:04;;;;;;;1.97;0.57;;;-2.60;97.10;;;;;;4987848;28;20050;-56
2021/12/25 04:15:30;;;;;;;2.20;0.50;;;-2.60;97.50;;;;;;4997022;28;20128;-51
2021/12/25 04:17:55;;;;;;;1.03;0.40;;;-2.50;97.60;;;;;;4998881;28;20128;-57
2021/12/25 04:20:21;;;;;;;2.00;0.60;;;-2.60;97.80;;;;;;4997763;28;20072;-52
2021/12/25 04:23:13;;;;;;;1.73;0.30;;;-2.50;97.50;;;;;;4997622;28;20041;-52
2021/12/25 04:25:35;;;;;;;3.27;0.30;;;-2.60;97.60;;;;;;5004102;28;20056;-52
2021/12/25 04:28:11;;;;;;;1.17;0.37;;;-2.60;97.20;;;;;;5001990;28;20038;-53
2021/12/25 04:31:04;;;;;;;2.63;0.83;;;-2.60;97.10;;;;;;5006590;28;20087;-54
2021/12/25 04:42:47;;;;;;;3.17;0.63;;;-2.60;97.10;;;;;;4999346;28;20088;-56
2021/12/25 05:04:22;;;;;;;1.00;0.40;;;-2.80;97.00;;;;;;4995655;28;20053;-53
2021/12/25 05:06:48;;;;;;;1.00;0.50;;;-2.80;97.50;;;;;;4994319;28;20042;-56
2021/12/25 05:09:15;;;;;;;3.73;0.67;;;-2.80;97.40;;;;;;4998778;28;20200;-55
2021/12/25 05:11:41;;;;;;;1.50;0.67;;;-2.80;97.60;;;;;;5004616;28;20038;-56
2021/12/25 05:14:07;;;;;;;1.03;0.50;;;-2.80;97.60;;;;;;5000162;28;20037;-54
2021/12/25 05:16:32;;;;;;;1.40;0.87;;;-2.80;97.70;;;;;;4998134;28;20049;-56
2021/12/25 05:18:58;;;;;;;0.93;0.50;;;-2.90;97.40;;;;;;5016780;22;20046;-61
2021/12/25 05:21:24;;;;;;;2.67;0.50;;;-2.90;97.30;;;;;;5018770;28;20412;-61
2021/12/25 05:23:50;;;;;;;0.80;0.37;;;-2.90;97.50;;;;;;5018972;28;20119;-62
2021/12/25 05:26:16;;;;;;;0.80;0.50;;;-2.90;97.80;;;;;;5015816;28;20072;-61
2021/12/25 05:28:45;;;;;;;2.17;0.50;;;-2.90;97.80;;;;;;5016629;28;20602;-62
2021/12/25 05:31:13;;;;;;;1.33;0.50;;;-2.90;97.80;;;;;;5012853;28;20056;-62
2021/12/25 05:33:40;;;;;;;4.47;1.20;;;-3.00;97.40;;;;;;5020490;28;20038;-62
2021/12/25 05:36:06;;;;;;;0.90;0.50;;;-3.00;97.30;;;;;;5013058;28;20560;-61
2021/12/25 05:38:34;;;;;;;2.00;0.50;;;-3.00;97.60;;;;;;5038237;28;20044;-62
2021/12/25 05:41:00;;;;;;;2.73;0.60;;;-3.00;97.60;;;;;;5035339;28;20041;-61
2021/12/25 05:43:26;;;;;;;2.10;0.47;;;-3.00;97.70;;;;;;5013149;28;20045;-63
2021/12/25 05:45:52;;;;;;;2.87;0.50;;;-3.00;97.80;;;;;;5021563;28;20033;-63
2021/12/25 05:48:18;;;;;;;3.00;0.70;;;-3.00;98.00;;;;;;5016495;28;20068;-60
2021/12/25 05:50:44;;;;;;;2.47;0.70;;;-3.10;97.90;;;;;;5032366;28;20065;-61
2021/12/25 05:53:09;;;;;;;1.90;0.50;;;-3.10;97.90;;;;;;5029340;28;20029;-63
2021/12/25 05:55:35;;;;;;;1.50;0.50;;;-3.10;98.00;;;;;;5031003;28;20041;-62
2021/12/25 05:58:03;;;;;;;0.37;0.30;;;-3.10;97.70;;;;;;5005218;28;20040;-63
2021/12/25 06:00:30;;;;;;;0.87;0.57;;;-3.10;97.70;;;;;;5006782;28;22154;-60
2021/12/25 06:02:56;;;;;;;3.53;0.60;;;-3.20;97.70;;;;;;5004922;28;20121;-60
2021/12/25 06:05:22;;;;;;;2.37;0.53;;;-3.20;98.30;;;;;;5016547;28;20037;-63
2021/12/25 06:07:48;;;;;;;1.53;0.60;;;-3.20;98.20;;;;;;5011788;28;20576;-61
2021/12/25 06:10:14;;;;;;;3.33;0.60;;;-3.20;98.40;;;;;;5008260;28;20041;-62
2021/12/25 06:12:43;;;;;;;2.93;1.20;;;-3.20;98.40;;;;;;5014055;28;20034;-62
2021/12/25 06:15:12;;;;;;;2.07;0.40;;;-3.20;98.50;;;;;;5019738;28;20480;-63
2021/12/25 06:17:39;;;;;;;2.23;0.70;;;-3.20;98.60;;;;;;5016476;28;20080;-60
2021/12/25 06:20:06;;;;;;;0.97;0.50;;;-3.30;98.20;;;;;;5023282;28;20038;-62
2021/12/25 06:22:32;;;;;;;2.20;0.57;;;-3.30;98.30;;;;;;5011916;28;20049;-62
2021/12/25 06:24:57;;;;;;;1.90;0.53;;;-3.20;98.70;;;;;;5030761;28;20041;-61
2021/12/25 06:27:24;;;;;;;1.03;0.47;;;-3.30;98.40;;;;;;4991968;28;20317;-60
2021/12/25 06:29:50;;;;;;;1.90;0.47;;;-3.30;98.70;;;;;;5006113;28;20403;-63
2021/12/25 06:32:18;;;;;;;2.23;1.00;;;-3.30;98.80;;;;;;5007642;28;20049;-61
2021/12/25 06:34:44;;;;;;;4.93;0.60;;;-3.30;99.00;;;;;;5009682;28;20037;-62
2021/12/25 06:37:11;;;;;;;2.10;0.70;;;-3.30;99.10;;;;;;5001140;28;20037;-62
2021/12/25 06:39:38;;;;;;;1.80;0.40;;;-3.30;98.90;;;;;;5036498;28;20095;-60
2021/12/25 06:42:04;;;;;;;1.60;1.00;;;-3.30;99.10;;;;;;5016820;28;20381;-62
2021/12/25 06:44:30;;;;;;;3.03;0.50;;;-3.30;98.90;;;;;;5018881;28;20053;-61
2021/12/25 06:46:56;;;;;;;1.00;0.60;;;-3.30;99.00;;;;;;5015202;28;20071;-62
2021/12/25 06:49:25;;;;;;;1.47;0.50;;;-3.40;98.90;;;;;;5018698;28;20072;-62
2021/12/25 06:51:52;;;;;;;3.90;0.50;;;-3.40;98.90;;;;;;5026261;28;21550;-60
2021/12/25 06:54:18;;;;;;;1.20;0.50;;;-3.40;98.60;;;;;;5021136;28;20511;-61
2021/12/25 06:56:44;;;;;;;3.70;0.57;;;-3.40;98.50;;;;;;5019712;28;20057;-61
2021/12/25 06:59:10;;;;;;;2.47;0.90;;;-3.40;98.70;;;;;;5011673;28;20045;-62
2021/12/25 07:01:37;;;;;;;0.90;0.73;;;-3.40;98.70;;;;;;5021903;28;20052;-61
2021/12/25 07:04:04;;;;;;;7.93;1.47;;;-3.40;98.60;;;;;;5025136;28;21660;-60
2021/12/25 07:06:30;;;;;;;1.67;0.40;;;-3.40;98.80;;;;;;5022852;28;20592;-62
2021/12/25 07:08:56;;;;;;;6.57;0.80;;;-3.40;98.70;;;;;;5018193;28;20041;-61
2021/12/25 07:11:21;;;;;;;1.87;0.70;;;-3.40;98.90;;;;;;5003044;28;20048;-62
2021/12/25 07:13:49;;;;;;;5.03;1.60;;;-3.40;98.90;;;;;;5030748;28;20091;-62
2021/12/25 07:16:14;;;;;;;1.30;0.70;;;-3.40;99.00;;;;;;5017622;28;20234;-63
2021/12/25 07:18:40;;;;;;;4.40;0.60;;;-3.40;99.00;;;;;;5024521;28;20044;-61
2021/12/25 07:21:06;;;;;;;4.63;0.80;;;-3.40;99.20;;;;;;5006751;28;20060;-62
2021/12/25 07:23:32;;;;;;;2.93;0.60;;;-3.40;99.00;;;;;;5020548;28;20103;-61
2021/12/25 07:25:59;;;;;;;1.20;0.60;;;-3.40;99.30;;;;;;5029465;28;20049;-63
2021/12/25 07:28:25;;;;;;;2.83;0.70;;;-3.40;99.60;;;;;;5033746;28;20452;-62
2021/12/25 07:30:51;;;;;;;2.60;1.23;;;-3.40;99.70;;;;;;5028209;28;20581;-62
2021/12/25 07:33:18;;;;;;;1.67;0.40;;;-3.40;99.80;;;;;;5023615;28;20062;-63
2021/12/25 07:35:44;;;;;;;4.07;0.90;;;-3.40;99.90;;;;;;4998033;28;20128;-61
2021/12/25 07:38:10;;;;;;;1.33;0.63;;;-3.40;99.90;;;;;;5017736;28;20709;-62
2021/12/25 07:40:36;;;;;;;1.67;0.57;;;-3.40;99.90;;;;;;5019941;28;20037;-60
2021/12/25 07:43:02;;;;;;;2.07;0.50;;;-3.50;99.90;;;;;;5033413;28;20025;-63
2021/12/25 07:45:28;;;;;;;1.40;0.60;;;-3.50;99.90;;;;;;5016704;28;20038;-59
2021/12/25 07:48:00;;;;;;;1.50;0.80;;;-3.50;99.90;;;;;;5019254;28;20056;-62
2021/12/25 07:50:27;;;;;;;1.93;0.73;;;-3.50;99.90;;;;;;5023660;28;20048;-62
2021/12/25 07:52:53;;;;;;;5.00;1.63;;;-3.50;99.90;;;;;;5026072;28;20583;-61
2021/12/25 07:55:19;;;;;;;4.23;1.07;;;-3.50;99.90;;;;;;5013453;28;20279;-62
2021/12/25 07:57:44;;;;;;;1.80;0.70;;;-3.50;99.90;;;;;;5019972;28;20041;-62
2021/12/25 08:00:12;;;;;;;1.63;0.50;;;-3.50;99.90;;;;;;5019399;28;20049;-60
2021/12/25 08:02:39;;;;;;;1.73;0.70;;;-3.50;99.90;;;;;;5004328;28;20033;-63
2021/12/25 08:05:05;;;;;;;0.87;0.43;;;-3.50;99.90;;;;;;5005800;28;20045;-63
2021/12/25 08:07:31;;;;;;;1.83;0.63;;;-3.50;99.90;;;;;;5020090;28;20506;-63
2021/12/25 08:10:10;;;;;;;1.80;0.63;;;-3.50;99.90;;;;;;5019661;28;20057;-61
2021/12/25 08:12:37;;;;;;;2.67;0.93;;;-3.50;99.90;;;;;;4993037;28;20630;-62
2021/12/25 08:15:03;;;;;;;4.13;0.80;;;-3.50;99.90;;;;;;5015586;28;20427;-62
2021/12/25 08:17:29;;;;;;;2.03;1.10;;;-3.50;99.90;;;;;;5015563;28;20057;-62
2021/12/25 08:19:54;;;;;;;2.33;0.67;;;-3.50;99.90;;;;;;5013796;28;20081;-60
2021/12/25 08:22:20;;;;;;;2.87;0.57;;;-3.50;99.90;;;;;;5014905;28;20047;-62
2021/12/25 08:24:46;;;;;;;1.53;0.80;;;-3.50;99.90;;;;;;5019892;28;20484;-62
2021/12/25 08:27:12;;;;;;;6.63;1.90;;;-3.50;99.90;;;;;;5014803;28;20237;-60
2021/12/25 08:29:38;;;;;;;2.07;0.70;;;-3.50;99.90;;;;;;5011548;28;20151;-62
2021/12/25 08:32:04;;;;;;;4.53;1.13;;;-3.50;99.90;;;;;;5015505;28;20083;-63
2021/12/25 08:34:30;;;;;;;1.30;0.80;;;-3.50;99.90;;;;;;5016511;28;20175;-62
2021/12/25 08:36:56;;;;;;;2.37;0.80;;;-3.50;99.90;;;;;;5016757;28;20124;-62
2021/12/25 08:39:22;;;;;;;2.80;1.00;;;-3.50;99.90;;;;;;5017097;28;20516;-63
2021/12/25 08:41:48;;;;;;;2.10;0.60;;;-3.50;99.90;;;;;;5014419;28;20042;-62
2021/12/25 08:44:33;;;;;;;4.23;0.87;;;-3.50;99.90;;;;;;4997388;28;20072;-61
2021/12/25 08:47:00;;;;;;;4.00;0.90;;;-3.50;99.90;;;;;;5014491;28;20041;-61
2021/12/25 08:49:29;;;;;;;2.43;1.00;;;-3.40;99.90;;;;;;4989989;28;20054;-62
2021/12/25 08:52:00;;;;;;;2.43;1.03;;;-3.40;99.90;;;;;;5016599;28;20060;-61
2021/12/25 08:54:27;;;;;;;6.20;1.53;;;-3.40;99.90;;;;;;5014085;28;20041;-62
2021/12/25 08:56:53;;;;;;;4.50;1.07;;;-3.30;99.90;;;;;;5016903;28;20380;-63
2021/12/25 08:59:19;;;;;;;4.87;1.00;;;-3.30;99.90;;;;;;5006089;28;20041;-62
2021/12/25 09:01:45;;;;;;;2.60;1.00;;;-3.20;99.90;;;;;;5016660;28;20036;-61
2021/12/25 09:04:10;;;;;;;3.87;0.80;;;-3.20;99.90;;;;;;5020591;28;20049;-63
2021/12/25 09:06:38;;;;;;;2.90;1.20;;;-3.10;99.90;;;;;;5007109;28;20037;-62
2021/12/25 09:09:07;;;;;;;2.63;0.90;;;-3.10;99.90;;;;;;5002720;28;20041;-62
2021/12/25 09:11:34;;;;;;;4.80;0.83;;;-3.00;99.90;;;;;;5005288;28;20143;-61
2021/12/25 09:14:00;;;;;;;3.67;1.00;;;-3.00;99.90;;;;;;5035513;28;20446;-61
2021/12/25 09:16:26;;;;;;;5.83;2.83;;;-2.90;99.90;;;;;;5012234;28;20131;-60
2021/12/25 09:18:51;;;;;;;3.90;0.90;;;-2.90;99.90;;;;;;5015871;28;20030;-63
2021/12/25 09:21:18;;;;;;;3.37;1.33;;;-2.80;99.90;;;;;;5018340;28;20073;-60
2021/12/25 09:23:44;;;;;;;7.10;1.20;;;-2.80;99.90;;;;;;5025447;28;20046;-60
2021/12/25 09:26:10;;;;;;;2.23;1.20;;;-2.80;99.90;;;;;;5018889;28;20048;-62
2021/12/25 09:28:36;;;;;;;2.77;1.03;;;-2.70;99.90;;;;;;5006214;28;20652;-61
2021/12/25 09:31:03;;;;;;;3.07;0.90;;;-2.70;99.90;;;;;;5017844;28;20049;-61
2021/12/25 09:33:30;;;;;;;3.67;1.43;;;-2.70;99.80;;;;;;5014284;28;20046;-62
2021/12/25 09:35:57;;;;;;;3.80;1.00;;;-2.60;99.80;;;;;;5019276;28;20061;-62
2021/12/25 09:38:23;;;;;;;3.90;0.60;;;-2.60;99.70;;;;;;5014433;28;20037;-62
2021/12/25 09:40:49;;;;;;;5.53;1.20;;;-2.50;99.70;;;;;;5035557;28;20528;-63
2021/12/25 09:43:18;;;;;;;3.03;1.00;;;-2.50;99.70;;;;;;5002993;28;20064;-62
2021/12/25 09:45:44;;;;;;;1.77;0.60;;;-2.40;99.60;;;;;;5013431;28;20045;-61
2021/12/25 09:48:11;;;;;;;3.13;0.97;;;-2.40;99.30;;;;;;5017363;28;20036;-61
2021/12/25 09:50:37;;;;;;;3.70;0.87;;;-2.30;99.10;;;;;;5014339;28;20114;-62
2021/12/25 09:53:08;;;;;;;4.97;1.40;;;-2.30;99.30;;;;;;5030124;28;20057;-61
2021/12/25 09:55:34;;;;;;;3.03;0.60;;;-2.20;99.40;;;;;;5014070;28;20092;-62
2021/12/25 09:58:00;;;;;;;2.33;1.23;;;-2.20;98.70;;;;;;5023027;28;20040;-62
2021/12/25 10:00:27;;;;;;;4.03;1.27;;;-2.10;98.80;;;;;;5018490;28;20041;-63
2021/12/25 10:02:55;;;;;;;3.23;0.90;;;-2.10;97.80;;;;;;4999110;28;20037;-62
2021/12/25 10:05:28;;;;;;;3.27;1.00;;;-2.10;98.10;;;;;;5016587;28;20137;-62
2021/12/25 10:08:22;;;;;;;3.07;1.07;;;-2.00;98.30;;;;;;5011852;28;20030;-59
2021/12/25 10:11:01;;;;;;;5.50;0.97;;;-2.00;98.00;;;;;;5021902;28;20128;-62
2021/12/25 10:13:37;;;;;;;1.83;0.80;;;-1.90;97.80;;;;;;5017424;28;20072;-62
2021/12/25 10:16:31;;;;;;;1.93;0.57;;;-1.90;97.40;;;;;;5016185;28;20044;-62
2021/12/25 10:19:18;;;;;;;2.38;0.90;;;-1.80;97.40;;;;;;5008692;28;20178;-62
2021/12/25 10:21:44;;;;;;;1.83;1.00;;;-1.80;97.70;;;;;;5019896;28;20045;-62
2021/12/25 10:24:16;;;;;;;4.13;0.73;;;-1.70;97.70;;;;;;5024661;28;20057;-61
2021/12/25 10:26:48;;;;;;;3.47;0.80;;;-1.70;97.20;;;;;;5018595;28;20138;-62
2021/12/25 10:29:24;;;;;;;4.17;0.70;;;-1.60;97.50;;;;;;5038833;28;20148;-62
2021/12/25 10:31:52;;;;;;;1.70;0.50;;;-1.60;97.10;;;;;;5020849;28;20046;-62
2021/12/25 10:34:23;;;;;;;2.70;0.70;;;-1.50;96.90;;;;;;5027502;28;20041;-62
2021/12/25 10:36:49;;;;;;;4.27;0.77;;;-1.50;97.00;;;;;;5023002;28;20046;-62
2021/12/25 10:39:17;;;;;;;3.07;0.80;;;-1.50;96.20;;;;;;5044920;28;20136;-62
2021/12/25 10:41:56;;;;;;;1.40;0.70;;;-1.50;96.60;;;;;;5025721;28;20493;-61
2021/12/25 10:44:25;;;;;;;2.17;0.80;;;-1.40;96.30;;;;;;5022496;28;20037;-62
2021/12/25 10:46:59;;;;;;;1.40;0.80;;;-1.40;96.30;;;;;;5019676;28;20453;-62
2021/12/25 10:49:45;;;;;;;;;;;-1.40;95.50;;;;;;4999392;28;20037;-62
2021/12/25 10:52:22;;;;;;;2.10;0.63;;;-1.40;96.20;;;;;;5016479;28;19978;-61
2021/12/25 10:54:52;;;;;;;4.80;1.10;;;-1.30;96.10;;;;;;5017067;28;20045;-62
2021/12/25 10:57:38;;;;;;;2.77;1.07;;;-1.30;96.10;;;;;;5024220;28;20188;-59
2021/12/25 11:00:15;;;;;;;2.73;1.00;;;-1.20;96.40;;;;;;5025328;28;20087;-61
2021/12/25 11:02:48;;;;;;;2.60;1.80;;;-1.10;96.60;;;;;;5016583;28;20077;-62
2021/12/25 11:05:22;;;;;;;4.17;1.07;;;-1.10;95.90;;;;;;5036646;28;20115;-62
2021/12/25 11:08:07;;;;;;;4.23;1.10;;;-1.20;95.10;;;;;;5018003;28;20530;-62
2021/12/25 11:10:58;;;;;;;3.13;1.17;;;-1.20;95.20;;;;;;5023247;28;20045;-59
2021/12/25 11:13:33;;;;;;;3.13;0.80;;;-1.20;95.40;;;;;;5022570;28;20094;-61
2021/12/25 11:16:16;;;;;;;4.93;1.20;;;-1.10;95.20;;;;;;5024229;28;20141;-62
2021/12/25 11:21:14;;;;;;;2.03;0.77;;;-1.10;95.10;;;;;;5053162;28;20076;-58
2021/12/25 11:23:40;;;;;;;3.00;0.80;;;-1.00;95.00;;;;;;5059953;28;20682;-56
2021/12/25 11:26:06;;;;;;;1.67;0.80;;;-1.00;95.00;;;;;;5064651;28;20037;-53
2021/12/25 11:28:32;;;;;;;2.07;0.73;;;-1.00;95.30;;;;;;5037987;28;20048;-52
2021/12/25 11:30:58;;;;;;;4.80;1.07;;;-1.00;94.60;;;;;;5060889;28;20043;-54
2021/12/25 11:33:23;;;;;;;2.70;0.77;;;-1.00;94.50;;;;;;5039773;28;20372;-56
2021/12/25 11:35:49;;;;;;;2.00;0.80;;;-1.00;94.60;;;;;;5009259;28;20494;-59
2021/12/25 11:38:15;;;;;;;2.27;1.07;;;-1.00;94.10;;;;;;5040125;28;20138;-55
2021/12/25 11:40:48;;;;;;;7.80;1.17;;;-1.00;94.20;;;;;;5039203;28;20127;-56
2021/12/25 11:43:14;;;;;;;1.93;1.13;;;-1.00;94.30;;;;;;5038413;28;20052;-59
2021/12/25 11:45:42;;;;;;;1.37;1.10;;;-0.90;94.40;;;;;;5049652;28;20376;-55
2021/12/25 11:48:20;;;;;;;4.47;1.70;;;-0.80;95.00;;;;;;5041638;28;20425;-55
2021/12/25 11:50:52;;;;;;;4.10;2.10;;;-0.70;94.80;;;;;;5033101;28;20087;-59
2021/12/25 11:53:42;;;;;;;3.70;1.70;;;-0.60;94.60;;;;;;5055005;28;20496;-57
2021/12/25 11:58:43;;;;;;;6.67;2.43;;;-0.60;93.50;;;;;;5026870;28;20044;-52
2021/12/25 12:01:29;;;;;;;5.53;2.53;;;-0.60;93.50;;;;;;5040722;28;20045;-54
2021/12/25 12:04:10;;;;;;;2.40;1.50;;;-0.60;94.00;;;;;;5035447;28;20057;-53
2021/12/25 12:06:47;;;;;;;3.10;1.10;;;-0.60;93.80;;;;;;5011758;28;20040;-55
2021/12/25 12:09:31;;;;;;;2.67;0.90;;;-0.50;93.60;;;;;;5025905;28;20198;-56
2021/12/25 12:12:03;;;;;;;3.17;1.10;;;-0.50;93.40;;;;;;5032006;28;20057;-59
2021/12/25 12:14:30;;;;;;;1.50;0.80;;;-0.40;93.70;;;;;;5037433;28;20450;-58
2021/12/25 12:17:02;;;;;;;2.10;1.00;;;-0.30;93.70;;;;;;5020540;28;20045;-55
2021/12/25 12:19:38;;;;;;;5.53;1.17;;;-0.30;93.70;;;;;;5023284;28;20728;-55
2021/12/25 12:22:57;;;;;;;2.40;1.00;;;-0.20;93.40;;;;;;5017487;28;20032;-56
2021/12/25 12:25:18;;;;;;;;;;;-0.20;93.40;;;;;;5042083;28;20056;-57
2021/12/25 12:27:48;;;;;;;;;;;-0.30;93.20;;;;;;5018948;28;19916;-55
2021/12/25 12:30:32;;;;;;;2.87;1.10;;;-0.20;93.60;;;;;;5023764;28;19920;-55
2021/12/25 12:33:00;;;;;;;3.30;0.90;;;-0.20;93.40;;;;;;5020792;28;20040;-55
2021/12/25 12:35:34;;;;;;;5.53;1.10;;;-0.30;93.30;;;;;;5039926;28;20075;-54
2021/12/25 12:38:38;;;;;;;6.47;2.67;;;-0.30;94.10;;;;;;5054002;28;20047;-54
2021/12/25 12:41:38;;;;;;;5.13;1.40;;;-0.30;93.80;;;;;;5050422;28;20103;-55
2021/12/25 12:44:08;;;;;;;6.17;2.10;;;-0.30;94.30;;;;;;5019667;28;20103;-55
2021/12/25 12:46:53;;;;;;;6.40;1.30;;;-0.20;94.40;;;;;;5022646;28;20118;-56
2021/12/25 12:49:23;;;;;;;3.87;1.30;;;-0.20;94.50;;;;;;5047813;28;20308;-52
2021/12/25 12:52:13;;;;;;;2.13;0.87;;;-0.20;94.40;;;;;;5032487;28;20051;-55
2021/12/25 12:54:53;;;;;;;4.47;1.00;;;-0.20;94.30;;;;;;5035017;28;20041;-57
2021/12/25 12:57:24;;;;;;;3.23;1.10;;;-0.30;93.60;;;;;;5034914;28;20037;-55
2021/12/25 12:59:57;;;;;;;5.00;1.13;;;-0.40;93.20;;;;;;5043092;28;20052;-58
2021/12/25 13:02:26;;;;;;;4.33;1.27;;;-0.50;93.60;;;;;;5042892;28;20044;-54
2021/12/25 13:04:58;;;;;;;2.47;1.53;;;-0.50;94.20;;;;;;5057323;28;20048;-53
2021/12/25 13:07:26;;;;;;;1.90;0.93;;;-0.60;94.30;;;;;;5029473;28;20534;-55
2021/12/25 13:10:05;;;;;;;2.03;1.20;;;-0.60;93.80;;;;;;5042619;28;20148;-57
2021/12/25 13:15:11;;;;;;;3.00;1.13;;;-0.70;94.00;;;;;;5030509;28;20306;-56
2021/12/25 13:17:37;;;;;;;2.33;1.20;;;-0.70;93.70;;;;;;5033113;28;20446;-54
2021/12/25 13:20:06;;;;;;;5.37;1.30;;;-0.70;93.50;;;;;;5035373;28;20514;-56
2021/12/25 13:22:31;;;;;;;4.30;1.60;;;-0.80;93.90;;;;;;5039664;28;20040;-57
2021/12/25 13:25:11;;;;;;;2.47;0.93;;;-0.80;93.90;;;;;;5017900;28;20051;-56
2021/12/25 13:27:37;;;;;;;4.20;1.20;;;-0.80;93.40;;;;;;5038173;28;20053;-54
2021/12/25 13:30:17;;;;;;;3.63;1.10;;;-0.90;93.30;;;;;;5029409;28;20060;-55
2021/12/25 13:32:44;;;;;;;2.17;1.23;;;-0.90;93.10;;;;;;5035005;28;20129;-55
2021/12/25 13:35:15;;;;;;;2.37;1.00;;;-0.90;93.50;;;;;;5042970;28;20040;-55
2021/12/25 13:37:41;;;;;;;3.37;1.10;;;-0.90;93.80;;;;;;5019739;28;20369;-56
2021/12/25 13:40:09;;;;;;;3.73;0.97;;;-0.90;93.70;;;;;;5052503;28;20036;-58
2021/12/25 13:42:35;;;;;;;3.83;0.80;;;-0.90;94.10;;;;;;5057170;28;20384;-57
2021/12/25 13:45:01;;;;;;;2.77;1.03;;;-0.90;94.20;;;;;;5037660;28;20060;-55
2021/12/25 13:47:27;;;;;;;2.50;0.80;;;-0.90;94.20;;;;;;5015397;28;20055;-54
2021/12/25 13:50:03;;;;;;;4.33;0.90;;;-0.90;94.30;;;;;;5035396;28;20070;-56
2021/12/25 13:52:46;;;;;;;5.87;1.30;;;-0.70;93.30;;;;;;5035319;28;20052;-58
2021/12/25 13:55:25;;;;;;;2.50;0.90;;;-1.00;93.90;;;;;;5039340;28;20047;-54
2021/12/25 13:58:07;;;;;;;3.70;2.10;;;-1.00;93.70;;;;;;5024192;28;20499;-55
2021/12/25 14:00:43;;;;;;;6.23;2.60;;;-1.00;94.10;;;;;;5021733;28;20310;-57
2021/12/25 14:03:21;;;;;;;6.70;2.33;;;-1.00;94.60;;;;;;5028886;28;20079;-52
2021/12/25 14:05:51;;;;;;;6.23;3.23;;;-1.00;94.60;;;;;;5056014;28;20111;-55
2021/12/25 14:08:23;;;;;;;8.27;3.40;;;-1.00;94.50;;;;;;5035032;28;20044;-57
2021/12/25 14:10:51;;;;;;;6.57;2.53;;;-1.00;94.40;;;;;;5021786;28;20047;-56
2021/12/25 14:13:21;;;;;;;2.60;1.10;;;-1.00;94.50;;;;;;5036730;28;20372;-58
2021/12/25 14:15:51;;;;;;;4.63;2.23;;;-1.00;94.40;;;;;;5015597;28;20574;-58
2021/12/25 14:18:19;;;;;;;4.63;1.20;;;-1.10;94.20;;;;;;5037872;28;20673;-54
2021/12/25 14:20:46;;;;;;;6.30;4.03;;;-1.10;94.40;;;;;;5018186;28;20039;-58